Time;durP1;ratioP1;P1;durP2;ratioP2;P2;SDS_P1;SDS_P2;PMS_P1;PMS_P2;Temp;Humidity;BMP_temperature;BMP_pressure;BME280_temperature;BME280_humidity;BME280_pressure;Samples;Min_cycle;Max_cycle;Signal;HPM_P1;HPM_P2
2022/08/19 00:01:46;;;;;;;5.47;4.97;;;25.80;68.80;;;;;;5041888;28;20457;-71
2022/08/19 00:04:16;;;;;;;6.00;5.40;;;25.80;68.80;;;;;;5050158;28;20406;-71
2022/08/19 00:06:44;;;;;;;5.73;5.30;;;25.70;68.80;;;;;;5063780;28;20412;-71
2022/08/19 00:09:13;;;;;;;6.30;5.80;;;25.70;68.80;;;;;;5027294;28;21015;-71
2022/08/19 00:11:40;;;;;;;6.13;5.63;;;25.80;68.90;;;;;;5047541;28;20447;-72
2022/08/19 00:14:11;;;;;;;5.93;5.43;;;25.70;68.80;;;;;;5017528;28;20457;-71
2022/08/19 00:16:39;;;;;;;6.70;6.10;;;25.70;68.80;;;;;;5010949;28;20448;-71
2022/08/19 00:19:05;;;;;;;6.33;5.83;;;25.70;68.90;;;;;;5041387;28;20436;-72
2022/08/19 00:21:38;;;;;;;5.43;4.93;;;25.70;68.90;;;;;;5063266;28;20490;-72
2022/08/19 00:24:04;;;;;;;6.10;5.60;;;25.70;68.90;;;;;;5030891;28;20404;-71
2022/08/19 00:26:30;;;;;;;5.50;5.00;;;25.70;69.00;;;;;;5031354;28;20435;-71
2022/08/19 00:29:00;;;;;;;6.17;5.67;;;25.60;68.90;;;;;;5029332;28;20428;-71
2022/08/19 00:31:27;;;;;;;5.93;5.33;;;25.60;68.90;;;;;;5044095;28;20399;-71
2022/08/19 00:33:56;;;;;;;6.27;5.80;;;25.60;69.70;;;;;;5048196;28;20499;-71
2022/08/19 00:36:23;;;;;;;5.83;5.33;;;25.60;68.90;;;;;;5050475;28;20953;-71
2022/08/19 00:38:51;;;;;;;6.07;5.57;;;25.60;68.90;;;;;;5036356;28;20440;-71
2022/08/19 00:41:20;;;;;;;5.70;5.17;;;25.60;68.90;;;;;;5010642;28;20955;-71
2022/08/19 00:44:10;;;;;;;6.03;5.60;;;25.60;68.90;;;;;;5013131;28;20808;-72
2022/08/19 00:46:42;;;;;;;5.93;5.43;;;25.60;69.00;;;;;;5015346;28;20964;-71
2022/08/19 00:49:36;;;;;;;6.37;5.87;;;25.50;68.90;;;;;;5025198;28;20434;-71
2022/08/19 00:52:13;;;;;;;6.53;5.93;;;25.60;69.00;;;;;;5050314;28;20430;-71
2022/08/19 00:54:40;;;;;;;6.27;5.77;;;25.50;68.90;;;;;;5047034;28;20888;-71
2022/08/19 00:57:12;;;;;;;7.30;5.20;;;25.50;68.90;;;;;;5044604;28;20798;-72
2022/08/19 00:59:40;;;;;;;5.50;5.10;;;25.50;68.90;;;;;;5023988;28;20465;-71
2022/08/19 01:02:09;;;;;;;6.63;6.13;;;25.50;69.00;;;;;;5049364;28;20985;-71
2022/08/19 01:04:37;;;;;;;5.83;5.33;;;25.50;69.10;;;;;;5033812;28;20988;-71
2022/08/19 01:07:04;;;;;;;6.13;5.63;;;25.50;69.10;;;;;;5050083;28;20431;-71
2022/08/19 01:09:31;;;;;;;6.97;6.33;;;25.50;69.10;;;;;;5050542;28;20518;-71
2022/08/19 01:11:57;;;;;;;6.13;5.63;;;25.50;69.20;;;;;;5037880;28;20454;-72
2022/08/19 01:14:24;;;;;;;6.00;5.60;;;25.40;69.10;;;;;;5037341;28;20811;-72
2022/08/19 01:16:56;;;;;;;6.97;6.37;;;25.40;69.10;;;;;;5029217;28;20435;-71
2022/08/19 01:19:41;;;;;;;9.93;6.10;;;25.40;69.00;;;;;;5013884;28;20574;-71
2022/08/19 01:22:30;;;;;;;6.40;5.80;;;25.40;69.00;;;;;;5008688;28;20547;-72
2022/08/19 01:24:57;;;;;;;5.97;5.47;;;25.40;69.00;;;;;;5053507;28;20418;-71
2022/08/19 01:27:23;;;;;;;5.57;5.17;;;25.40;69.10;;;;;;5058829;28;20450;-71
2022/08/19 01:29:51;;;;;;;5.70;5.30;;;25.40;69.20;;;;;;5033511;28;20467;-72
2022/08/19 01:32:22;;;;;;;5.60;5.10;;;25.30;69.00;;;;;;5039156;28;20799;-71
2022/08/19 01:34:50;;;;;;;6.70;6.10;;;25.30;69.00;;;;;;5054640;28;21078;-71
2022/08/19 01:37:16;;;;;;;5.90;5.47;;;25.30;69.00;;;;;;5053298;28;20422;-71
2022/08/19 01:39:43;;;;;;;6.00;5.50;;;25.30;69.10;;;;;;5037767;28;20455;-71
2022/08/19 01:42:11;;;;;;;5.80;5.40;;;25.30;69.20;;;;;;5016435;28;20458;-71
2022/08/19 01:44:41;;;;;;;6.43;5.80;;;25.30;69.20;;;;;;5050168;28;20431;-71
2022/08/19 01:47:09;;;;;;;6.13;5.70;;;25.30;69.20;;;;;;5037685;28;20786;-71
2022/08/19 01:49:36;;;;;;;6.33;5.77;;;25.30;69.30;;;;;;5036712;28;20421;-71
2022/08/19 01:52:04;;;;;;;6.10;5.50;;;25.20;69.10;;;;;;5029741;28;20479;-71
2022/08/19 01:54:31;;;;;;;7.13;6.20;;;25.30;69.30;;;;;;5013131;28;20423;-71
2022/08/19 01:57:07;;;;;;;6.30;5.80;;;25.30;69.30;;;;;;5065350;28;20860;-71
2022/08/19 01:59:36;;;;;;;6.33;5.73;;;25.20;69.20;;;;;;5052890;28;20437;-71
2022/08/19 02:02:08;;;;;;;6.10;5.60;;;25.20;69.20;;;;;;5051576;28;20459;-71
2022/08/19 02:04:39;;;;;;;5.67;5.27;;;25.20;69.20;;;;;;5052918;28;20429;-71
2022/08/19 02:07:11;;;;;;;6.37;5.77;;;25.20;69.20;;;;;;5016948;28;20510;-71
2022/08/19 02:09:39;;;;;;;6.17;5.67;;;25.20;69.30;;;;;;5016465;28;21003;-71
2022/08/19 02:12:07;;;;;;;6.20;5.70;;;25.20;69.20;;;;;;5043252;28;20443;-71
2022/08/19 02:14:35;;;;;;;5.90;5.40;;;25.20;69.30;;;;;;5032366;28;20436;-71
2022/08/19 02:17:01;;;;;;;5.90;5.40;;;25.20;69.20;;;;;;5032145;28;20484;-71
2022/08/19 02:19:32;;;;;;;6.67;5.83;;;25.10;69.10;;;;;;5016048;28;20439;-71
2022/08/19 02:22:03;;;;;;;5.87;5.47;;;25.10;69.10;;;;;;5053140;28;20442;-72
2022/08/19 02:24:35;;;;;;;5.33;4.93;;;25.10;69.10;;;;;;5031308;28;20452;-71
2022/08/19 02:27:04;;;;;;;5.87;5.37;;;25.10;69.10;;;;;;5046115;28;20486;-72
2022/08/19 02:29:30;;;;;;;5.87;5.37;;;25.10;69.10;;;;;;5047406;28;20494;-71
2022/08/19 02:31:56;;;;;;;5.80;4.80;;;25.10;69.10;;;;;;5032146;28;20447;-71
2022/08/19 02:34:27;;;;;;;6.40;5.60;;;25.10;69.10;;;;;;5031207;28;20932;-71
2022/08/19 02:36:53;;;;;;;5.70;5.30;;;25.00;69.00;;;;;;5032289;28;20824;-71
2022/08/19 02:39:19;;;;;;;5.70;5.20;;;25.00;69.00;;;;;;5048631;28;20426;-72
2022/08/19 02:41:49;;;;;;;5.77;5.37;;;25.00;69.10;;;;;;5051921;28;20454;-71
2022/08/19 02:44:15;;;;;;;6.13;5.60;;;25.00;69.00;;;;;;5014101;28;20450;-71
2022/08/19 02:46:44;;;;;;;5.93;5.50;;;25.00;69.00;;;;;;5052086;28;20451;-71
2022/08/19 02:49:12;;;;;;;5.80;5.33;;;25.00;69.00;;;;;;5051873;28;20318;-71
2022/08/19 02:51:43;;;;;;;6.10;5.60;;;25.00;69.10;;;;;;5035507;28;20445;-71
2022/08/19 02:54:11;;;;;;;6.13;5.47;;;25.00;69.00;;;;;;5030950;28;20454;-71
2022/08/19 02:56:38;;;;;;;6.20;5.70;;;25.00;69.00;;;;;;5014878;28;20921;-71
2022/08/19 02:59:11;;;;;;;5.50;5.10;;;24.90;69.00;;;;;;5031203;28;20427;-71
2022/08/19 03:01:40;;;;;;;7.80;5.70;;;24.90;68.90;;;;;;5033007;28;20443;-71
2022/08/19 03:04:07;;;;;;;5.33;4.93;;;24.90;68.90;;;;;;5026730;28;20798;-71
2022/08/19 03:06:39;;;;;;;5.80;5.40;;;24.90;69.00;;;;;;5049747;28;20391;-71
2022/08/19 03:09:11;;;;;;;5.53;5.03;;;24.90;68.90;;;;;;5046969;28;20424;-71
2022/08/19 03:11:41;;;;;;;5.40;5.00;;;24.90;69.00;;;;;;5034953;28;20441;-71
2022/08/19 03:14:08;;;;;;;6.23;5.63;;;24.90;69.00;;;;;;5022464;28;20436;-72
2022/08/19 03:16:51;;;;;;;5.47;5.07;;;24.90;69.00;;;;;;5012094;28;20427;-71
2022/08/19 03:19:19;;;;;;;5.73;5.23;;;24.90;69.00;;;;;;5013911;28;20502;-71
2022/08/19 03:21:48;;;;;;;5.40;5.00;;;24.80;68.80;;;;;;5011407;28;20876;-71
2022/08/19 03:24:15;;;;;;;5.87;5.37;;;24.80;68.80;;;;;;5041824;28;20923;-71
2022/08/19 03:26:48;;;;;;;5.33;4.93;;;24.80;68.90;;;;;;5052312;28;20434;-71
2022/08/19 03:29:19;;;;;;;5.60;5.20;;;24.80;68.80;;;;;;5050390;28;20513;-72
2022/08/19 03:31:48;;;;;;;5.53;5.13;;;24.80;68.80;;;;;;5032113;28;20535;-71
2022/08/19 03:34:17;;;;;;;5.63;5.13;;;24.80;68.90;;;;;;5042987;28;20434;-71
2022/08/19 03:36:44;;;;;;;5.77;5.27;;;24.80;68.80;;;;;;5033781;28;20916;-70
2022/08/19 03:39:18;;;;;;;5.90;5.40;;;24.70;68.70;;;;;;5014099;28;20838;-71
2022/08/19 03:41:49;;;;;;;5.73;5.23;;;24.70;68.80;;;;;;5047409;28;20438;-72
2022/08/19 03:44:21;;;;;;;5.80;5.20;;;24.70;68.80;;;;;;5031103;28;20956;-71
2022/08/19 03:46:54;;;;;;;6.07;5.57;;;24.70;68.80;;;;;;4998301;28;20420;-71
2022/08/19 03:49:23;;;;;;;5.60;5.10;;;24.70;69.60;;;;;;5031242;28;20526;-71
2022/08/19 03:51:50;;;;;;;5.80;5.30;;;24.70;68.80;;;;;;4998533;28;20411;-71
2022/08/19 03:54:20;;;;;;;6.00;5.50;;;24.70;68.80;;;;;;5059388;28;20850;-71
2022/08/19 03:56:51;;;;;;;6.27;5.67;;;24.70;68.80;;;;;;5031908;28;20423;-70
2022/08/19 03:59:28;;;;;;;5.80;5.20;;;24.70;68.80;;;;;;5029920;28;20453;-71
2022/08/19 04:02:00;;;;;;;5.17;4.83;;;24.60;68.70;;;;;;5050787;28;20993;-71
2022/08/19 04:04:26;;;;;;;5.83;5.30;;;24.60;68.80;;;;;;5029046;28;20952;-71
2022/08/19 04:06:53;;;;;;;6.20;5.60;;;24.60;68.70;;;;;;5011359;28;20930;-71
2022/08/19 04:09:21;;;;;;;6.00;5.50;;;24.60;68.70;;;;;;5043712;28;20427;-71
2022/08/19 04:11:53;;;;;;;5.10;4.70;;;24.60;68.80;;;;;;5012096;28;20555;-71
2022/08/19 04:14:24;;;;;;;5.80;5.30;;;24.60;68.80;;;;;;5028955;28;20527;-71
2022/08/19 04:16:52;;;;;;;5.60;5.13;;;24.60;68.70;;;;;;5012369;28;20401;-71
2022/08/19 04:19:19;;;;;;;5.23;4.83;;;24.50;68.70;;;;;;5044022;28;20814;-71
2022/08/19 04:21:48;;;;;;;5.77;5.27;;;24.50;68.60;;;;;;5033884;28;20454;-71
2022/08/19 04:24:17;;;;;;;5.30;4.80;;;24.50;68.70;;;;;;5043214;28;20440;-71
2022/08/19 04:26:44;;;;;;;5.47;5.07;;;24.50;68.70;;;;;;5012171;28;20405;-71
2022/08/19 04:29:24;;;;;;;7.00;5.70;;;24.50;68.70;;;;;;5042499;28;20550;-71
2022/08/19 04:31:55;;;;;;;5.87;5.20;;;24.50;68.70;;;;;;5013151;28;20447;-71
2022/08/19 04:34:23;;;;;;;6.17;5.67;;;24.50;68.70;;;;;;5031178;28;20463;-71
2022/08/19 04:36:53;;;;;;;5.23;4.83;;;24.50;68.70;;;;;;5030579;28;20415;-71
2022/08/19 04:45:03;;;;;;;6.17;5.57;;;24.40;68.70;;;;;;5047787;28;20419;-71
2022/08/19 04:47:32;;;;;;;5.50;5.10;;;24.40;68.70;;;;;;5019374;28;20440;-71
2022/08/19 04:49:58;;;;;;;5.70;5.20;;;24.40;68.70;;;;;;5055463;28;20402;-71
2022/08/19 04:52:24;;;;;;;5.30;4.80;;;24.40;68.80;;;;;;5051439;28;20451;-71
2022/08/19 04:54:50;;;;;;;5.17;4.70;;;24.40;68.80;;;;;;5034162;28;20439;-71
2022/08/19 04:57:16;;;;;;;5.90;5.40;;;24.40;68.70;;;;;;5034432;28;20414;-71
2022/08/19 04:59:44;;;;;;;6.00;5.50;;;24.40;68.80;;;;;;5017548;28;20455;-71
2022/08/19 05:02:11;;;;;;;7.77;5.23;;;24.40;68.80;;;;;;5033072;28;20427;-71
2022/08/19 05:04:41;;;;;;;5.97;5.37;;;24.40;68.80;;;;;;5033975;28;20768;-71
2022/08/19 05:07:09;;;;;;;5.70;5.20;;;24.30;68.80;;;;;;5017459;28;20484;-71
2022/08/19 05:09:38;;;;;;;5.53;5.13;;;24.30;68.80;;;;;;5033476;28;20439;-71
2022/08/19 05:12:09;;;;;;;5.43;4.93;;;24.30;68.70;;;;;;5037286;28;20856;-71
2022/08/19 05:14:37;;;;;;;5.40;5.10;;;24.30;68.70;;;;;;5053758;28;20406;-71
2022/08/19 05:17:05;;;;;;;5.60;5.20;;;24.30;68.80;;;;;;5050034;28;20465;-71
2022/08/19 05:22:32;;;;;;;5.77;5.37;;;24.30;68.90;;;;;;5033006;28;20209;-71
2022/08/19 05:25:02;;;;;;;5.73;5.33;;;24.20;68.70;;;;;;5017234;28;20458;-71
2022/08/19 05:27:28;;;;;;;5.40;5.00;;;24.20;68.80;;;;;;5040511;28;20430;-71
2022/08/19 05:29:58;;;;;;;6.40;5.90;;;24.20;68.80;;;;;;5054642;28;20745;-71
2022/08/19 05:32:25;;;;;;;5.47;5.07;;;24.20;68.80;;;;;;5045909;28;20462;-71
2022/08/19 05:34:51;;;;;;;5.97;5.47;;;24.20;69.00;;;;;;5033607;28;20431;-71
2022/08/19 05:37:17;;;;;;;6.07;5.57;;;24.20;69.00;;;;;;5027572;28;20523;-71
2022/08/19 05:39:46;;;;;;;6.43;5.87;;;24.20;69.00;;;;;;5049931;28;20416;-72
2022/08/19 05:42:17;;;;;;;5.43;5.03;;;24.20;69.00;;;;;;5012575;28;20985;-72
2022/08/19 05:44:44;;;;;;;5.70;5.20;;;24.20;69.10;;;;;;5013550;28;20405;-72
2022/08/19 05:47:12;;;;;;;5.87;5.43;;;24.20;69.20;;;;;;5033819;28;20423;-72
2022/08/19 05:49:38;;;;;;;5.50;5.00;;;24.20;69.30;;;;;;5016561;28;20807;-71
2022/08/19 05:52:07;;;;;;;6.80;6.20;;;24.10;69.20;;;;;;5045857;28;20473;-72
2022/08/19 05:54:37;;;;;;;6.80;6.10;;;24.10;69.40;;;;;;5052100;28;20437;-72
2022/08/19 05:57:09;;;;;;;6.20;5.70;;;24.10;69.50;;;;;;5035679;28;20447;-72
2022/08/19 05:59:38;;;;;;;6.43;5.90;;;24.10;69.60;;;;;;5069488;28;20426;-72
2022/08/19 06:02:09;;;;;;;6.60;6.00;;;24.10;69.70;;;;;;5050334;28;20609;-74
2022/08/19 06:04:39;;;;;;;7.17;6.57;;;24.10;69.80;;;;;;5033902;28;21153;-75
2022/08/19 06:07:05;;;;;;;8.33;6.77;;;24.10;69.80;;;;;;5028025;28;20420;-74
2022/08/19 06:09:31;;;;;;;7.77;7.17;;;24.10;69.90;;;;;;5049998;28;20949;-74
2022/08/19 06:11:59;;;;;;;6.80;6.23;;;24.10;70.00;;;;;;5032664;28;20447;-74
2022/08/19 06:14:31;;;;;;;7.77;7.07;;;24.10;70.10;;;;;;5034223;28;20840;-74
2022/08/19 06:16:59;;;;;;;7.73;7.03;;;24.10;70.20;;;;;;5059330;28;20446;-75
2022/08/19 06:19:39;;;;;;;9.73;8.73;;;24.10;70.30;;;;;;5043510;28;20466;-73
2022/08/19 06:22:06;;;;;;;8.80;8.10;;;24.10;70.30;;;;;;5046735;28;20456;-75
2022/08/19 06:24:32;;;;;;;9.17;8.30;;;24.10;70.40;;;;;;5046842;28;20416;-73
2022/08/19 06:26:59;;;;;;;7.70;7.10;;;24.10;70.70;;;;;;5036704;28;21010;-74
2022/08/19 06:29:26;;;;;;;10.30;9.40;;;24.10;70.80;;;;;;5032998;28;20388;-74
2022/08/19 06:31:56;;;;;;;10.83;9.93;;;24.00;70.80;;;;;;5029816;28;20424;-73
2022/08/19 06:34:27;;;;;;;10.47;9.57;;;24.00;71.10;;;;;;5013530;28;20499;-73
2022/08/19 06:37:00;;;;;;;9.80;9.00;;;24.00;71.20;;;;;;5018844;28;20447;-73
2022/08/19 06:39:32;;;;;;;10.73;9.83;;;24.00;71.30;;;;;;5049176;28;20436;-74
2022/08/19 06:42:03;;;;;;;11.30;10.30;;;24.00;71.40;;;;;;5046126;28;20572;-74
2022/08/19 06:44:34;;;;;;;10.60;9.63;;;24.00;71.40;;;;;;5013173;28;20487;-73
2022/08/19 06:47:03;;;;;;;11.90;10.70;;;24.00;71.50;;;;;;5043681;28;20431;-74
2022/08/19 06:49:30;;;;;;;12.83;11.63;;;24.00;71.70;;;;;;5033776;28;20403;-74
2022/08/19 06:51:59;;;;;;;12.30;11.10;;;24.00;71.80;;;;;;5015472;28;20451;-79
2022/08/19 06:54:31;;;;;;;13.63;12.27;;;24.00;72.10;;;;;;5016364;28;20423;-74
2022/08/19 06:57:02;;;;;;;14.20;12.90;;;24.00;72.20;;;;;;5031859;28;20440;-74
2022/08/19 06:59:32;;;;;;;13.70;12.50;;;24.00;72.40;;;;;;5029136;28;20487;-74
2022/08/19 07:02:05;;;;;;;13.63;12.43;;;24.00;72.60;;;;;;5030255;28;20566;-74
2022/08/19 07:04:32;;;;;;;13.57;12.30;;;24.00;72.60;;;;;;5032139;28;20420;-74
2022/08/19 07:07:00;;;;;;;12.17;11.13;;;24.00;72.60;;;;;;5016359;28;20802;-75
2022/08/19 07:09:27;;;;;;;13.63;12.43;;;24.00;72.80;;;;;;5018460;28;20433;-74
2022/08/19 07:11:56;;;;;;;14.50;12.63;;;24.00;72.80;;;;;;5012541;28;20456;-74
2022/08/19 07:14:28;;;;;;;11.63;10.63;;;24.00;72.80;;;;;;5026364;28;20940;-74
2022/08/19 07:16:57;;;;;;;11.63;10.63;;;24.00;72.80;;;;;;5052444;28;20402;-73
2022/08/19 07:19:27;;;;;;;12.80;11.70;;;24.00;72.90;;;;;;5014209;28;20476;-74
2022/08/19 07:22:15;;;;;;;13.37;11.43;;;24.00;73.00;;;;;;5012498;28;20456;-74
2022/08/19 07:24:47;;;;;;;11.90;10.90;;;24.00;73.10;;;;;;5043477;28;20533;-74
2022/08/19 07:27:14;;;;;;;11.70;10.70;;;24.00;73.10;;;;;;5012226;28;20902;-74
2022/08/19 07:29:42;;;;;;;11.97;10.90;;;24.00;73.10;;;;;;5031282;28;20442;-74
2022/08/19 07:32:09;;;;;;;12.30;11.20;;;24.00;73.00;;;;;;5033009;28;20427;-73
2022/08/19 07:34:37;;;;;;;10.60;9.60;;;24.00;73.20;;;;;;5047387;28;20836;-74
2022/08/19 07:37:06;;;;;;;11.37;10.30;;;24.00;73.20;;;;;;5036925;28;20403;-73
2022/08/19 07:39:34;;;;;;;11.90;10.80;;;24.00;73.30;;;;;;5023593;28;20434;-73
2022/08/19 07:42:06;;;;;;;10.80;9.80;;;24.00;73.40;;;;;;5040432;28;20524;-74
2022/08/19 07:44:35;;;;;;;11.13;10.10;;;24.00;73.30;;;;;;5042995;28;20871;-74
2022/08/19 07:47:01;;;;;;;11.43;10.03;;;24.00;73.40;;;;;;5015304;28;20400;-73
2022/08/19 07:49:30;;;;;;;10.73;9.63;;;24.00;73.40;;;;;;5040245;28;20510;-74
2022/08/19 07:52:01;;;;;;;11.50;10.40;;;24.00;73.30;;;;;;5039147;28;20513;-73
2022/08/19 07:54:32;;;;;;;10.53;9.63;;;24.00;73.40;;;;;;5038454;28;20518;-74
2022/08/19 07:57:00;;;;;;;11.50;10.50;;;24.10;74.40;;;;;;5015063;28;21073;-73
2022/08/19 07:59:28;;;;;;;10.50;9.50;;;24.10;73.60;;;;;;5031111;28;20534;-74
2022/08/19 08:01:55;;;;;;;9.93;9.13;;;24.10;73.80;;;;;;5030819;28;20463;-74
2022/08/19 08:09:59;;;;;;;9.60;8.80;;;24.10;74.10;;;;;;5051019;28;20428;-73
2022/08/19 08:12:38;;;;;;;9.50;8.70;;;24.10;74.40;;;;;;5028553;28;20915;-74
2022/08/19 08:15:12;;;;;;;9.17;8.40;;;24.10;74.50;;;;;;5049089;28;20451;-74
2022/08/19 08:17:44;;;;;;;9.20;8.33;;;24.10;74.30;;;;;;5031096;28;20436;-74
2022/08/19 08:20:11;;;;;;;9.17;8.43;;;24.10;74.30;;;;;;5015825;28;20440;-74
2022/08/19 08:25:30;;;;;;;9.10;8.20;;;24.10;74.20;;;;;;5043902;28;20439;-73
2022/08/19 08:27:59;;;;;;;9.70;8.70;;;24.10;74.30;;;;;;5019142;28;20423;-74
2022/08/19 08:30:32;;;;;;;8.40;7.77;;;24.10;74.50;;;;;;5015737;28;20423;-74
2022/08/19 08:32:59;;;;;;;9.07;8.37;;;24.20;74.40;;;;;;5024310;28;20442;-74
2022/08/19 08:35:25;;;;;;;10.63;8.77;;;24.20;74.40;;;;;;5042538;28;20924;-74
2022/08/19 08:37:53;;;;;;;11.13;10.00;;;24.20;74.60;;;;;;5036476;28;20495;-76
2022/08/19 08:40:43;;;;;;;12.00;10.70;;;24.20;74.80;;;;;;5035211;28;20784;-74
2022/08/19 08:43:28;;;;;;;11.23;10.07;;;24.20;74.80;;;;;;5036240;28;20431;-74
2022/08/19 08:46:01;;;;;;;11.50;10.47;;;24.20;74.80;;;;;;5051845;28;20403;-73
2022/08/19 08:48:39;;;;;;;11.73;10.60;;;24.20;74.70;;;;;;5023789;28;20448;-76
2022/08/19 08:51:09;;;;;;;10.73;9.80;;;24.20;74.70;;;;;;5031740;28;20404;-75
2022/08/19 08:53:43;;;;;;;12.57;10.80;;;24.20;74.80;;;;;;5016459;28;20802;-73
2022/08/19 08:56:30;;;;;;;12.37;11.27;;;24.30;74.80;;;;;;5016161;28;20407;-73
2022/08/19 08:59:08;;;;;;;11.47;10.43;;;24.30;74.90;;;;;;5016329;28;20536;-73
2022/08/19 09:01:35;;;;;;;13.50;12.10;;;24.30;75.20;;;;;;5031391;28;20988;-73
2022/08/19 09:04:05;;;;;;;12.73;11.43;;;24.30;75.10;;;;;;5026445;28;20485;-74
2022/08/19 09:06:40;;;;;;;11.90;10.27;;;24.30;75.10;;;;;;5047276;28;20800;-74
2022/08/19 09:09:19;;;;;;;11.30;10.20;;;24.40;75.00;;;;;;5018003;28;20442;-74
2022/08/19 09:11:56;;;;;;;10.63;9.67;;;24.40;74.70;;;;;;5014964;28;20400;-74
2022/08/19 09:14:50;;;;;;;12.10;10.97;;;24.40;74.40;;;;;;5033439;28;20450;-74
2022/08/19 09:17:30;;;;;;;10.57;9.60;;;24.40;74.60;;;;;;5015922;28;20438;-74
2022/08/19 09:19:56;;;;;;;11.07;10.03;;;24.40;74.50;;;;;;5021290;28;20874;-74
2022/08/19 09:22:26;;;;;;;10.70;9.70;;;24.50;74.50;;;;;;5024678;28;20527;-73
2022/08/19 09:24:57;;;;;;;11.40;10.37;;;24.50;75.20;;;;;;5037718;28;20439;-73
2022/08/19 09:27:27;;;;;;;12.17;10.97;;;24.50;75.00;;;;;;5032996;28;20923;-73
2022/08/19 09:29:55;;;;;;;11.60;10.40;;;24.50;74.20;;;;;;5035050;28;20411;-74
2022/08/19 09:32:22;;;;;;;11.47;10.30;;;24.60;74.20;;;;;;5046992;28;20943;-74
2022/08/19 09:34:48;;;;;;;11.27;10.27;;;24.60;74.10;;;;;;5003931;28;20424;-72
2022/08/19 09:37:17;;;;;;;12.73;11.47;;;24.60;74.10;;;;;;5033137;28;20940;-73
2022/08/19 09:39:43;;;;;;;12.47;11.40;;;24.60;74.70;;;;;;5013863;28;20450;-75
2022/08/19 09:42:13;;;;;;;12.53;11.33;;;24.70;74.00;;;;;;5025705;28;20471;-74
2022/08/19 09:44:42;;;;;;;13.47;12.17;;;24.70;73.90;;;;;;5030857;28;20810;-75
2022/08/19 09:47:13;;;;;;;12.90;11.70;;;24.70;74.00;;;;;;5029621;28;20485;-74
2022/08/19 09:49:42;;;;;;;12.57;11.20;;;24.70;74.10;;;;;;5014074;28;20561;-74
2022/08/19 09:52:10;;;;;;;12.10;11.00;;;24.70;74.00;;;;;;5047599;28;20462;-75
2022/08/19 09:54:37;;;;;;;13.57;12.33;;;24.70;73.90;;;;;;5049944;28;20870;-75
2022/08/19 09:57:04;;;;;;;13.10;11.90;;;24.70;73.80;;;;;;5028875;28;20431;-71
2022/08/19 09:59:30;;;;;;;12.30;11.20;;;24.80;73.80;;;;;;5024506;28;20450;-74
2022/08/19 10:01:58;;;;;;;12.03;10.90;;;24.80;73.70;;;;;;5012716;28;20493;-74
2022/08/19 10:07:26;;;;;;;11.93;10.93;;;24.90;73.80;;;;;;5036013;28;20422;-74
2022/08/19 10:09:52;;;;;;;13.40;12.10;;;24.90;73.80;;;;;;5013527;28;20463;-74
2022/08/19 10:12:18;;;;;;;14.07;12.80;;;24.90;73.80;;;;;;5063437;28;20453;-74
2022/08/19 10:14:46;;;;;;;13.20;12.00;;;24.90;73.80;;;;;;5030341;28;20440;-75
2022/08/19 10:17:15;;;;;;;14.83;13.43;;;24.90;73.80;;;;;;5013945;28;20444;-75
2022/08/19 10:19:41;;;;;;;12.97;11.87;;;25.00;73.80;;;;;;5012235;28;20428;-73
2022/08/19 10:22:13;;;;;;;12.60;11.50;;;25.00;73.80;;;;;;5011948;28;20562;-75
2022/08/19 10:24:40;;;;;;;14.20;12.70;;;25.00;73.80;;;;;;5010037;28;20409;-74
2022/08/19 10:27:06;;;;;;;13.50;12.40;;;25.00;73.70;;;;;;5025625;28;20430;-76
2022/08/19 10:29:36;;;;;;;13.83;12.70;;;25.00;73.60;;;;;;5016907;28;20443;-74
2022/08/19 10:32:09;;;;;;;13.33;12.13;;;25.10;73.80;;;;;;5030419;28;20816;-74
2022/08/19 10:34:37;;;;;;;12.83;11.70;;;25.10;73.60;;;;;;5030545;28;20849;-73
2022/08/19 10:37:05;;;;;;;14.50;13.20;;;25.10;73.60;;;;;;5031094;28;20913;-74
2022/08/19 10:39:35;;;;;;;12.80;11.70;;;25.10;73.40;;;;;;5019935;28;20517;-74
2022/08/19 10:42:10;;;;;;;12.30;11.20;;;25.20;73.40;;;;;;5031202;28;20836;-74
2022/08/19 10:44:36;;;;;;;13.07;11.67;;;25.20;73.40;;;;;;5061661;28;20864;-74
2022/08/19 10:47:05;;;;;;;12.23;11.13;;;25.20;73.30;;;;;;5035483;28;20431;-74
2022/08/19 10:52:32;;;;;;;11.80;10.80;;;25.20;73.30;;;;;;5019755;28;20419;-74
2022/08/19 10:52:34;;;;;;;13.57;12.40;;;25.20;73.20;;;;;;5017620;28;20457;-75
2022/08/19 10:57:48;;;;;;;12.20;11.20;;;25.30;73.20;;;;;;5025396;28;20931;-74
2022/08/19 11:00:15;;;;;;;13.00;11.77;;;25.30;73.00;;;;;;5025566;28;20473;-73
2022/08/19 11:02:41;;;;;;;12.53;11.43;;;25.40;73.00;;;;;;5029004;28;21030;-73
2022/08/19 11:05:10;;;;;;;12.00;11.00;;;25.40;72.90;;;;;;5008536;28;20468;-74
2022/08/19 11:07:40;;;;;;;11.50;10.50;;;25.40;72.90;;;;;;5025949;28;20493;-75
2022/08/19 11:10:09;;;;;;;10.77;9.90;;;25.40;72.70;;;;;;5027073;28;20819;-74
2022/08/19 11:12:40;;;;;;;12.77;11.67;;;25.40;72.60;;;;;;5028490;28;20960;-73
2022/08/19 11:15:10;;;;;;;12.03;11.03;;;25.50;72.50;;;;;;5028015;28;20522;-72
2022/08/19 11:17:41;;;;;;;11.37;10.37;;;25.50;72.40;;;;;;5029140;28;21027;-74
2022/08/19 11:20:25;;;;;;;12.57;11.53;;;25.50;72.30;;;;;;5028288;28;20500;-74
2022/08/19 11:22:56;;;;;;;11.00;10.00;;;25.50;72.30;;;;;;5027843;28;20535;-73
2022/08/19 11:25:24;;;;;;;11.93;10.83;;;25.60;72.30;;;;;;5028331;28;21199;-75
2022/08/19 11:27:56;;;;;;;11.10;10.13;;;25.60;72.20;;;;;;5008836;28;20493;-71
2022/08/19 11:30:21;;;;;;;13.17;12.07;;;25.60;72.10;;;;;;5012186;28;20506;-73
2022/08/19 11:32:48;;;;;;;11.73;10.70;;;25.60;72.00;;;;;;4985221;28;20471;-75
2022/08/19 11:35:14;;;;;;;11.70;10.70;;;25.60;72.00;;;;;;5025301;28;20656;-73
2022/08/19 11:37:47;;;;;;;10.77;9.87;;;25.70;71.90;;;;;;5037335;28;20451;-72
2022/08/19 11:40:18;;;;;;;11.47;10.57;;;25.70;71.80;;;;;;5035925;28;20510;-72
2022/08/19 11:42:56;;;;;;;11.10;10.03;;;25.70;71.70;;;;;;5037022;28;20458;-73
2022/08/19 11:45:28;;;;;;;10.73;9.83;;;25.80;71.70;;;;;;5016001;28;20446;-72
2022/08/19 11:48:04;;;;;;;12.10;11.00;;;25.80;71.50;;;;;;5030872;28;20447;-73
2022/08/19 11:50:35;;;;;;;11.33;10.40;;;25.90;71.40;;;;;;5030746;28;20447;-73
2022/08/19 11:53:10;;;;;;;10.93;9.93;;;25.90;71.30;;;;;;5046293;28;20469;-72
2022/08/19 11:55:39;;;;;;;11.20;10.20;;;25.90;71.10;;;;;;5031870;28;20441;-72
2022/08/19 11:58:09;;;;;;;11.17;10.17;;;26.00;71.10;;;;;;5015468;28;20416;-72
2022/08/19 12:00:37;;;;;;;10.40;9.47;;;26.00;70.90;;;;;;5032770;28;20466;-72
2022/08/19 12:06:51;;;;;;;11.00;10.00;;;26.00;70.50;;;;;;5032423;28;20801;-72
2022/08/19 12:13:39;;;;;;;10.47;9.67;;;26.10;70.20;;;;;;5032353;28;20461;-72
2022/08/19 12:16:19;;;;;;;10.53;9.57;;;26.10;69.80;;;;;;5049057;28;20438;-72
2022/08/19 12:18:48;;;;;;;10.47;9.60;;;26.10;69.90;;;;;;5031520;28;20444;-73
2022/08/19 12:21:15;;;;;;;10.73;9.73;;;26.10;69.70;;;;;;5044631;28;20456;-73
2022/08/19 12:24:22;;;;;;;10.50;9.60;;;26.20;69.70;;;;;;5014733;28;20466;-73
2022/08/19 12:26:58;;;;;;;10.57;9.67;;;26.20;69.30;;;;;;5021647;28;20851;-73
2022/08/19 12:29:28;;;;;;;10.00;9.20;;;26.20;69.10;;;;;;5031793;28;20422;-72
2022/08/19 12:32:04;;;;;;;10.30;9.37;;;26.20;69.10;;;;;;5032187;28;20799;-73
2022/08/19 12:34:32;;;;;;;10.40;9.50;;;26.20;68.80;;;;;;5013190;28;20490;-72
2022/08/19 12:37:01;;;;;;;9.77;8.80;;;26.30;68.70;;;;;;5024608;28;20451;-73
2022/08/19 12:40:41;;;;;;;9.50;8.70;;;26.30;68.80;;;;;;5050663;28;20434;-73
2022/08/19 12:43:08;;;;;;;9.43;8.60;;;26.30;68.60;;;;;;5011819;28;20469;-73
2022/08/19 12:45:34;;;;;;;8.50;7.90;;;26.30;68.30;;;;;;5034764;28;20438;-73
2022/08/19 12:48:05;;;;;;;10.07;9.07;;;26.30;67.80;;;;;;5050586;28;20446;-73
2022/08/19 12:50:31;;;;;;;9.27;8.40;;;26.40;67.60;;;;;;5035337;28;20453;-73
2022/08/19 12:53:00;;;;;;;8.63;7.87;;;26.40;67.50;;;;;;5047126;28;20448;-73
2022/08/19 12:55:30;;;;;;;8.57;7.87;;;26.40;67.10;;;;;;5012638;28;20408;-73
2022/08/19 12:57:56;;;;;;;9.10;8.40;;;26.50;67.40;;;;;;5011817;28;20835;-73
2022/08/19 13:01:14;;;;;;;9.63;8.90;;;26.50;67.40;;;;;;5027723;28;20850;-73
2022/08/19 13:03:40;;;;;;;9.40;8.60;;;26.50;67.30;;;;;;5012727;28;20995;-73
2022/08/19 13:06:24;;;;;;;10.80;8.60;;;26.60;67.30;;;;;;4998534;28;20420;-72
2022/08/19 13:13:50;;;;;;;9.10;8.40;;;26.60;67.00;;;;;;4994325;28;20543;-73
2022/08/19 13:16:27;;;;;;;9.27;8.47;;;26.60;67.00;;;;;;4975121;28;20448;-73
2022/08/19 13:18:55;;;;;;;9.03;8.13;;;26.70;67.10;;;;;;4975045;28;20460;-73
2022/08/19 13:21:28;;;;;;;8.50;7.70;;;26.70;66.90;;;;;;4974910;28;20444;-72
2022/08/19 13:23:57;;;;;;;8.17;7.47;;;26.70;66.70;;;;;;4974852;28;20445;-74
2022/08/19 13:26:24;;;;;;;8.10;7.40;;;26.70;66.40;;;;;;4975090;28;20407;-73
2022/08/19 13:36:00;;;;;;;7.97;7.27;;;26.80;65.90;;;;;;4992877;28;20465;-73
2022/08/19 13:38:56;;;;;;;7.83;7.23;;;26.90;65.80;;;;;;4986963;28;20436;-73
2022/08/19 13:41:22;;;;;;;8.93;7.60;;;26.90;65.70;;;;;;5015181;28;20961;-73